Terminal Aerodrome Forecast
Issued by NWS Missoula, MT

Home | Current Version | Previous Version | Text Only | Print | Product List | Glossary On
Versions: 1 2 3 4 5 6 7 8 9 10 11 12 13 14 15 16 17 18 19
184
FTUS45 KMSO 270808 AAB
TAFBTM
TAF AMD
KBTM 270808Z 2708/2806 30009KT 4SM -SN BR OVC025
     FM270930 31008KT P6SM VCSH BKN050
     FM271200 31009KT P6SM BKN080
     FM271800 31011G18KT P6SM BKN100=

USA.gov is the U.S. government's official web portal to all federal, state and local government web resources and services.